Time;durP1;ratioP1;P1;durP2;ratioP2;P2;SDS_P1;SDS_P2;PMS_P1;PMS_P2;Temp;Humidity;BMP_temperature;BMP_pressure;BME280_temperature;BME280_humidity;BME280_pressure;Samples;Min_cycle;Max_cycle;Signal;HPM_P1;HPM_P2
2023/07/15 00:00:14;;;;;;;2.03;1.75;;;19.80;84.00;;;;;;5023526;28;20496;-63
2023/07/15 00:02:44;;;;;;;5.75;1.88;;;19.80;85.00;;;;;;5005159;28;20514;-63
2023/07/15 00:05:20;;;;;;;4.43;1.73;;;19.80;84.40;;;;;;5022132;28;20025;-65
2023/07/15 00:07:48;;;;;;;1.73;1.17;;;19.80;84.90;;;;;;5027258;28;20014;-64
2023/07/15 00:10:14;;;;;;;2.65;1.42;;;19.80;84.40;;;;;;5024760;28;20344;-64
2023/07/15 00:12:39;;;;;;;3.78;1.63;;;19.80;84.50;;;;;;5022506;28;20486;-64
2023/07/15 00:15:09;;;;;;;3.40;1.63;;;19.80;85.70;;;;;;5026074;28;20036;-64
2023/07/15 00:17:35;;;;;;;5.05;1.50;;;19.90;84.80;;;;;;5025180;28;20033;-63
2023/07/15 00:20:00;;;;;;;4.15;1.77;;;19.80;85.30;;;;;;5026438;28;20090;-64
2023/07/15 00:22:26;;;;;;;2.60;1.80;;;19.80;85.70;;;;;;5025204;28;20052;-63
2023/07/15 00:24:51;;;;;;;2.40;1.60;;;19.80;85.90;;;;;;5034344;28;20021;-64
2023/07/15 00:27:17;;;;;;;2.72;1.60;;;19.80;85.30;;;;;;5026869;28;20034;-63
2023/07/15 00:29:42;;;;;;;5.95;1.88;;;19.80;85.30;;;;;;5025259;28;20034;-64
2023/07/15 00:32:13;;;;;;;5.90;1.30;;;19.80;85.90;;;;;;5022832;28;20045;-64
2023/07/15 00:34:38;;;;;;;3.92;1.88;;;19.80;86.70;;;;;;5029235;28;20537;-63
2023/07/15 00:37:04;;;;;;;4.32;1.45;;;19.80;87.60;;;;;;5030797;28;20100;-64
2023/07/15 00:39:30;;;;;;;3.55;1.35;;;19.70;87.50;;;;;;5022193;28;20045;-65
2023/07/15 00:41:58;;;;;;;4.43;2.17;;;19.60;88.30;;;;;;5027389;28;20113;-65
2023/07/15 00:44:24;;;;;;;3.10;1.55;;;19.50;88.50;;;;;;5025213;28;20030;-65
2023/07/15 00:47:31;;;;;;;3.80;1.70;;;19.50;89.20;;;;;;5029823;28;20025;-65
2023/07/15 00:49:57;;;;;;;2.63;1.80;;;19.40;89.50;;;;;;5023190;28;20030;-65
2023/07/15 00:52:22;;;;;;;4.05;1.80;;;19.40;89.50;;;;;;5019268;28;20032;-65
2023/07/15 00:54:53;;;;;;;4.65;1.77;;;19.40;90.00;;;;;;5029436;28;20033;-64
2023/07/15 00:57:20;;;;;;;2.40;1.55;;;19.30;90.20;;;;;;5026275;28;20037;-65
2023/07/15 00:59:48;;;;;;;2.65;1.55;;;19.30;90.20;;;;;;5023086;28;20108;-64
2023/07/15 01:02:15;;;;;;;5.68;1.50;;;19.30;90.70;;;;;;5028020;28;20026;-65
2023/07/15 01:04:41;;;;;;;3.30;1.50;;;19.30;90.60;;;;;;5025587;28;20049;-64
2023/07/15 01:07:07;;;;;;;11.85;1.65;;;19.30;90.50;;;;;;5030495;28;20034;-65
2023/07/15 01:09:34;;;;;;;4.43;1.10;;;19.30;90.40;;;;;;5030451;28;20669;-65
2023/07/15 01:12:00;;;;;;;1.98;1.20;;;19.30;90.70;;;;;;5030443;28;20034;-65
2023/07/15 01:14:28;;;;;;;4.55;1.60;;;19.20;91.10;;;;;;5032985;28;20028;-65
2023/07/15 01:16:54;;;;;;;2.10;1.50;;;19.10;91.20;;;;;;5032731;28;20021;-64
2023/07/15 01:19:20;;;;;;;4.20;1.25;;;19.10;91.60;;;;;;5032826;28;20017;-64
2023/07/15 01:21:50;;;;;;;1.85;1.05;;;19.00;91.60;;;;;;5032737;28;20491;-65
2023/07/15 01:24:19;;;;;;;2.22;1.60;;;19.00;91.70;;;;;;5014259;28;20064;-65
2023/07/15 01:26:46;;;;;;;8.45;1.40;;;19.00;92.20;;;;;;5031741;28;20044;-65
2023/07/15 01:29:13;;;;;;;3.17;1.58;;;18.90;92.80;;;;;;5026072;28;20036;-64
2023/07/15 01:31:40;;;;;;;2.25;1.25;;;18.90;92.60;;;;;;5027232;28;20026;-65
2023/07/15 01:34:07;;;;;;;3.85;1.33;;;18.80;92.60;;;;;;5030566;22;20045;-69
2023/07/15 01:36:33;;;;;;;2.63;1.50;;;18.80;92.80;;;;;;5009994;28;20434;-68
2023/07/15 01:38:58;;;;;;;5.15;1.63;;;18.80;92.80;;;;;;5002736;28;20037;-68
2023/07/15 01:41:24;;;;;;;4.15;1.63;;;18.80;92.90;;;;;;5004106;28;20022;-69
2023/07/15 01:43:50;;;;;;;7.70;1.50;;;18.80;92.80;;;;;;5018686;28;20030;-69
2023/07/15 01:46:15;;;;;;;6.90;1.55;;;18.80;93.40;;;;;;5025539;28;20180;-69
2023/07/15 01:48:41;;;;;;;6.82;2.30;;;18.70;93.70;;;;;;5028712;28;20017;-68
2023/07/15 01:51:06;;;;;;;3.50;1.27;;;18.70;94.10;;;;;;5024560;28;20049;-68
2023/07/15 01:53:32;;;;;;;3.13;1.50;;;18.70;93.80;;;;;;5024149;28;20033;-69
2023/07/15 01:55:57;;;;;;;3.38;1.60;;;18.60;94.00;;;;;;5025744;28;20033;-69
2023/07/15 01:58:23;;;;;;;2.33;1.45;;;18.60;94.20;;;;;;5023172;28;20060;-69
2023/07/15 02:00:49;;;;;;;2.97;1.75;;;18.60;94.30;;;;;;5020687;28;20427;-68
2023/07/15 02:03:15;;;;;;;2.53;1.70;;;18.60;94.30;;;;;;5027706;28;20049;-69
2023/07/15 02:05:41;;;;;;;6.78;1.50;;;18.60;94.10;;;;;;5023637;28;20024;-69
2023/07/15 02:08:06;;;;;;;2.65;1.70;;;18.60;93.90;;;;;;5025179;28;20029;-68
2023/07/15 02:10:32;;;;;;;2.08;1.25;;;18.60;94.00;;;;;;5022462;28;20034;-69
2023/07/15 02:12:57;;;;;;;2.13;1.45;;;18.60;94.10;;;;;;5029108;28;20483;-70
2023/07/15 02:15:23;;;;;;;2.38;1.40;;;18.60;94.50;;;;;;5030810;28;20064;-69
2023/07/15 02:17:49;;;;;;;5.30;1.95;;;18.50;94.50;;;;;;5029240;28;20048;-67
2023/07/15 02:20:15;;;;;;;2.67;1.42;;;18.60;95.10;;;;;;5031800;28;20017;-70
2023/07/15 02:22:41;;;;;;;5.15;1.80;;;18.50;94.50;;;;;;5031379;28;20099;-69
2023/07/15 02:25:07;;;;;;;4.60;1.38;;;18.60;94.30;;;;;;5031828;28;20531;-69
2023/07/15 02:27:32;;;;;;;1.65;1.10;;;18.50;94.90;;;;;;5031521;28;20041;-69
2023/07/15 02:29:58;;;;;;;2.80;1.58;;;18.50;95.00;;;;;;5031782;28;20293;-70
2023/07/15 02:32:39;;;;;;;5.32;1.50;;;18.50;95.40;;;;;;5029324;28;20036;-68
2023/07/15 02:35:08;;;;;;;2.75;1.38;;;18.50;94.90;;;;;;5019786;28;20034;-70
2023/07/15 02:37:37;;;;;;;4.22;1.95;;;18.50;95.20;;;;;;5024160;28;20959;-68
2023/07/15 02:40:06;;;;;;;4.80;1.90;;;18.50;95.00;;;;;;5021821;28;20407;-69
2023/07/15 02:42:36;;;;;;;2.15;1.35;;;18.50;95.10;;;;;;5022310;28;20112;-69
2023/07/15 02:45:06;;;;;;;2.95;1.85;;;18.50;95.40;;;;;;5020106;28;20076;-69
2023/07/15 02:47:32;;;;;;;2.33;1.20;;;18.50;95.30;;;;;;5023228;28;20061;-69
2023/07/15 02:50:00;;;;;;;4.53;1.90;;;18.50;95.20;;;;;;5025895;28;20022;-69
2023/07/15 02:52:26;;;;;;;3.13;1.50;;;18.50;95.30;;;;;;5021286;28;20061;-69
2023/07/15 02:54:51;;;;;;;10.07;1.42;;;18.50;95.00;;;;;;5023006;28;20079;-70
2023/07/15 02:57:17;;;;;;;3.78;1.60;;;18.50;95.20;;;;;;5021364;28;20029;-68
2023/07/15 02:59:43;;;;;;;2.08;1.58;;;18.60;95.00;;;;;;5023106;28;20479;-68
2023/07/15 03:02:10;;;;;;;3.05;1.45;;;18.60;95.10;;;;;;5022786;28;20068;-68
2023/07/15 03:04:37;;;;;;;3.22;1.77;;;18.60;95.20;;;;;;5023090;28;20375;-68
2023/07/15 03:07:02;;;;;;;1.90;1.30;;;18.60;95.40;;;;;;5024391;28;20029;-69
2023/07/15 03:09:28;;;;;;;1.80;1.30;;;18.60;95.00;;;;;;5003861;28;20037;-70
2023/07/15 03:11:54;;;;;;;2.90;1.27;;;18.70;95.00;;;;;;5022359;28;20017;-68
2023/07/15 03:14:19;;;;;;;1.20;1.10;;;18.70;95.10;;;;;;5021823;28;20032;-67
2023/07/15 03:16:45;;;;;;;5.88;1.40;;;18.70;95.60;;;;;;5030110;28;20029;-69
2023/07/15 03:19:11;;;;;;;4.18;1.88;;;18.70;95.20;;;;;;5030764;28;20053;-69
2023/07/15 03:21:38;;;;;;;7.50;1.40;;;18.70;95.20;;;;;;5031002;28;20430;-69
2023/07/15 03:24:05;;;;;;;3.58;1.95;;;18.60;95.50;;;;;;5030953;28;20017;-69
2023/07/15 03:26:30;;;;;;;2.35;1.45;;;18.60;95.50;;;;;;5029898;28;20033;-68
2023/07/15 03:28:57;;;;;;;2.75;1.42;;;18.60;95.90;;;;;;5025666;28;20025;-68
2023/07/15 03:31:23;;;;;;;5.90;1.75;;;18.60;95.90;;;;;;5026665;28;20053;-70
2023/07/15 03:33:51;;;;;;;5.50;1.83;;;18.60;95.80;;;;;;5028332;28;20087;-68
2023/07/15 03:36:17;;;;;;;2.15;1.23;;;18.50;96.00;;;;;;5027162;28;20022;-69
2023/07/15 03:38:43;;;;;;;1.88;1.42;;;18.50;96.50;;;;;;5030099;28;20063;-70
2023/07/15 03:41:08;;;;;;;2.88;2.00;;;18.50;95.90;;;;;;5030409;28;20519;-69
2023/07/15 03:43:34;;;;;;;2.10;1.40;;;18.50;95.70;;;;;;5029030;28;20390;-69
2023/07/15 03:45:59;;;;;;;2.45;1.20;;;18.60;95.60;;;;;;5027257;28;20029;-69
2023/07/15 03:48:25;;;;;;;3.70;1.30;;;18.60;96.40;;;;;;5021809;28;20029;-67
2023/07/15 03:50:51;;;;;;;2.17;1.30;;;18.60;95.80;;;;;;5023920;28;20029;-69
2023/07/15 03:53:16;;;;;;;2.55;1.42;;;18.60;96.00;;;;;;5017197;28;20562;-69
2023/07/15 03:55:42;;;;;;;2.63;1.58;;;18.70;95.90;;;;;;5027237;28;20022;-69
2023/07/15 03:58:08;;;;;;;5.53;2.03;;;18.70;95.50;;;;;;5019967;28;20064;-71
2023/07/15 04:00:34;;;;;;;3.38;1.40;;;18.70;95.80;;;;;;5026133;28;20025;-67
2023/07/15 04:03:00;;;;;;;2.65;1.50;;;18.80;96.30;;;;;;5027194;28;20111;-70
2023/07/15 04:05:26;;;;;;;3.30;1.58;;;18.80;96.70;;;;;;5023552;28;20092;-69
2023/07/15 04:07:52;;;;;;;2.30;1.20;;;18.80;96.50;;;;;;5020245;28;20674;-68
2023/07/15 04:10:17;;;;;;;3.72;1.25;;;18.90;96.20;;;;;;5019113;28;20158;-69
2023/07/15 04:12:43;;;;;;;2.25;1.38;;;18.90;95.70;;;;;;5021761;28;20029;-70
2023/07/15 04:15:09;;;;;;;1.73;1.27;;;19.00;96.20;;;;;;5021876;28;20437;-69
2023/07/15 04:17:34;;;;;;;2.65;1.30;;;19.10;96.90;;;;;;5027466;28;20037;-69
2023/07/15 04:20:00;;;;;;;3.72;1.50;;;19.10;96.40;;;;;;5011947;28;20044;-69
2023/07/15 04:22:25;;;;;;;2.20;1.40;;;19.10;95.80;;;;;;5029995;28;20429;-69
2023/07/15 04:24:51;;;;;;;2.95;1.33;;;19.20;96.30;;;;;;5027867;28;20049;-67
2023/07/15 04:27:17;;;;;;;2.40;1.63;;;19.30;96.00;;;;;;5030515;28;20078;-69
2023/07/15 04:29:43;;;;;;;5.10;1.88;;;19.30;96.70;;;;;;5031990;28;20034;-67
2023/07/15 04:32:09;;;;;;;2.60;1.50;;;19.50;96.80;;;;;;5031894;28;20037;-69
2023/07/15 04:34:34;;;;;;;3.00;1.23;;;19.60;94.60;;;;;;5031838;28;20254;-69
2023/07/15 04:37:00;;;;;;;3.80;1.40;;;19.80;94.80;;;;;;5033292;28;20037;-69
2023/07/15 04:39:27;;;;;;;2.42;1.70;;;20.10;96.00;;;;;;5032808;28;20026;-69
2023/07/15 04:41:52;;;;;;;3.63;1.30;;;20.70;95.80;;;;;;5033391;28;20386;-68
2023/07/15 04:44:18;;;;;;;1.63;1.30;;;21.80;93.90;;;;;;5033354;28;20022;-69
2023/07/15 04:46:44;;;;;;;2.88;1.58;;;23.00;90.00;;;;;;5033319;28;20075;-69
2023/07/15 04:49:10;;;;;;;3.22;1.20;;;24.00;90.00;;;;;;5032254;28;20029;-69
2023/07/15 04:51:35;;;;;;;3.50;1.23;;;24.90;87.60;;;;;;5030406;28;20446;-69
2023/07/15 04:54:02;;;;;;;1.65;1.00;;;25.70;84.80;;;;;;5031642;28;20040;-68
2023/07/15 04:56:29;;;;;;;2.78;1.10;;;26.40;82.60;;;;;;5028864;28;20017;-71
2023/07/15 04:58:54;;;;;;;3.88;1.88;;;26.90;78.50;;;;;;5029711;28;20021;-69
2023/07/15 05:01:22;;;;;;;2.40;1.77;;;27.40;75.00;;;;;;5025426;28;20403;-70
2023/07/15 05:03:47;;;;;;;1.50;1.10;;;27.80;74.30;;;;;;5026130;28;20051;-67
2023/07/15 05:06:14;;;;;;;3.95;1.05;;;28.30;74.90;;;;;;5029442;28;20434;-68
2023/07/15 05:08:39;;;;;;;5.20;1.48;;;28.70;73.60;;;;;;5029823;28;20036;-67
2023/07/15 05:11:05;;;;;;;2.40;1.00;;;29.10;72.20;;;;;;5022627;28;20030;-68
2023/07/15 05:13:31;;;;;;;2.90;1.25;;;29.60;71.00;;;;;;5031938;28;20479;-68
2023/07/15 05:15:56;;;;;;;2.28;1.23;;;30.10;67.60;;;;;;5024606;28;20029;-69
2023/07/15 05:18:22;;;;;;;1.30;0.90;;;30.40;69.30;;;;;;5017317;28;20522;-67
2023/07/15 05:20:47;;;;;;;1.88;1.10;;;30.60;69.00;;;;;;5026490;28;20025;-67
2023/07/15 05:23:14;;;;;;;5.07;1.25;;;30.70;67.80;;;;;;5027700;28;20364;-68
2023/07/15 05:25:40;;;;;;;1.55;1.08;;;31.10;67.70;;;;;;5023296;28;20048;-68
2023/07/15 05:28:05;;;;;;;3.42;1.30;;;31.50;65.80;;;;;;5024989;28;20041;-68
2023/07/15 05:30:34;;;;;;;2.95;1.35;;;31.80;64.70;;;;;;5019356;28;20037;-67
2023/07/15 05:32:59;;;;;;;2.97;1.20;;;32.10;64.50;;;;;;5029320;28;20075;-67
2023/07/15 05:35:25;;;;;;;2.92;1.13;;;32.20;64.30;;;;;;5027952;28;20391;-66
2023/07/15 05:37:51;;;;;;;4.93;1.40;;;32.60;62.60;;;;;;5030565;28;20082;-67
2023/07/15 05:40:17;;;;;;;1.58;1.20;;;33.10;62.10;;;;;;5007611;28;20045;-67
2023/07/15 05:42:43;;;;;;;2.03;1.15;;;33.40;61.00;;;;;;5030916;28;20030;-67
2023/07/15 05:45:10;;;;;;;4.88;1.30;;;33.20;61.60;;;;;;5031631;28;20022;-67
2023/07/15 05:47:36;;;;;;;1.95;1.27;;;32.80;61.90;;;;;;5030886;28;20013;-67
2023/07/15 05:50:03;;;;;;;1.73;1.20;;;33.00;62.00;;;;;;5026275;28;20764;-66
2023/07/15 05:52:29;;;;;;;2.40;1.20;;;33.20;61.80;;;;;;5018258;28;20025;-68
2023/07/15 05:54:55;;;;;;;8.38;1.58;;;34.50;60.80;;;;;;5027125;28;20033;-68
2023/07/15 05:57:20;;;;;;;3.50;1.15;;;34.80;58.50;;;;;;5022726;28;20105;-67
2023/07/15 05:59:46;;;;;;;4.97;1.38;;;35.30;58.30;;;;;;5023477;28;20097;-68
2023/07/15 06:02:11;;;;;;;1.35;1.20;;;35.10;58.30;;;;;;5024500;28;20113;-67
2023/07/15 06:04:37;;;;;;;1.65;1.30;;;35.00;58.90;;;;;;5023358;28;20040;-67
2023/07/15 06:07:03;;;;;;;1.73;1.27;;;35.10;58.00;;;;;;5005032;28;20041;-68
2023/07/15 06:09:28;;;;;;;7.85;2.55;;;35.20;58.90;;;;;;5024349;28;20029;-67
2023/07/15 06:11:54;;;;;;;5.22;1.48;;;35.60;58.20;;;;;;5029422;28;20398;-68
2023/07/15 06:14:19;;;;;;;7.25;1.75;;;35.70;59.20;;;;;;5030201;28;20057;-68
2023/07/15 06:16:45;;;;;;;1.52;1.25;;;37.40;57.60;;;;;;5025695;28;20093;-68
2023/07/15 06:19:10;;;;;;;3.63;1.73;;;36.40;56.30;;;;;;5027568;28;20029;-66
2023/07/15 06:21:36;;;;;;;2.55;1.30;;;37.40;56.60;;;;;;5024580;28;20475;-66
2023/07/15 06:24:02;;;;;;;1.85;1.50;;;37.00;56.10;;;;;;5022841;28;20025;-68
2023/07/15 06:26:28;;;;;;;4.40;1.50;;;37.00;57.20;;;;;;5023544;28;20044;-67
2023/07/15 06:28:54;;;;;;;5.82;1.42;;;36.20;55.10;;;;;;5025490;28;20029;-68
2023/07/15 06:31:20;;;;;;;3.58;1.38;;;34.40;56.50;;;;;;5021189;28;20112;-68
2023/07/15 06:33:47;;;;;;;1.70;1.15;;;33.10;59.80;;;;;;5022516;28;20029;-67
2023/07/15 06:36:13;;;;;;;3.90;1.60;;;31.60;62.30;;;;;;5022288;28;20048;-68
2023/07/15 06:38:40;;;;;;;2.25;1.25;;;30.40;65.50;;;;;;5020952;28;20487;-69
2023/07/15 06:41:05;;;;;;;2.63;1.45;;;29.70;68.10;;;;;;5022651;28;20714;-70
2023/07/15 06:43:31;;;;;;;7.18;1.38;;;29.20;68.20;;;;;;5021689;28;20222;-69
2023/07/15 06:45:57;;;;;;;2.83;1.33;;;28.80;68.40;;;;;;5021906;28;20026;-69
2023/07/15 06:48:22;;;;;;;3.60;1.55;;;28.30;68.80;;;;;;5027426;28;20070;-70
2023/07/15 06:50:48;;;;;;;2.40;1.17;;;28.20;71.40;;;;;;5026014;28;20034;-68
2023/07/15 06:53:14;;;;;;;4.05;1.70;;;28.30;71.70;;;;;;5017863;28;20037;-68
2023/07/15 06:55:40;;;;;;;2.22;1.30;;;28.40;71.50;;;;;;5019920;28;20109;-69
2023/07/15 06:58:06;;;;;;;3.67;1.30;;;28.40;71.60;;;;;;5023922;28;20041;-69
2023/07/15 07:00:32;;;;;;;2.60;1.67;;;28.30;69.40;;;;;;5021986;28;20057;-69
2023/07/15 07:03:00;;;;;;;2.47;1.40;;;28.10;71.80;;;;;;5028747;28;20018;-69
2023/07/15 07:05:27;;;;;;;2.92;1.33;;;27.90;73.60;;;;;;5019145;28;20046;-69
2023/07/15 07:07:53;;;;;;;3.65;1.25;;;27.60;73.40;;;;;;5024387;28;20033;-68
2023/07/15 07:10:19;;;;;;;4.97;1.10;;;27.40;74.20;;;;;;5027706;28;20109;-68
2023/07/15 07:12:46;;;;;;;1.85;1.52;;;27.20;73.20;;;;;;5028059;28;20108;-69
2023/07/15 07:15:11;;;;;;;2.60;1.13;;;27.00;72.80;;;;;;5013614;28;20467;-68
2023/07/15 07:17:37;;;;;;;4.22;1.50;;;26.80;75.40;;;;;;5028576;28;20108;-68
2023/07/15 07:20:05;;;;;;;2.85;1.60;;;26.80;75.90;;;;;;5025615;28;20029;-69
2023/07/15 07:22:31;;;;;;;12.93;1.65;;;26.70;76.70;;;;;;5030212;28;20459;-68
2023/07/15 07:24:58;;;;;;;7.40;1.20;;;26.70;77.00;;;;;;5027971;28;20100;-69
2023/07/15 07:27:24;;;;;;;3.60;1.58;;;26.40;78.70;;;;;;5026857;28;20597;-69
2023/07/15 07:29:49;;;;;;;4.32;1.63;;;26.20;78.30;;;;;;5021350;28;20042;-68
2023/07/15 07:32:15;;;;;;;1.88;1.35;;;25.90;79.60;;;;;;5018181;28;20033;-69
2023/07/15 07:34:40;;;;;;;6.00;1.58;;;25.60;81.50;;;;;;5021501;22;20057;-64
2023/07/15 07:37:06;;;;;;;3.88;1.30;;;25.40;81.30;;;;;;4981248;28;20175;-66
2023/07/15 07:39:32;;;;;;;2.65;1.60;;;25.20;82.80;;;;;;4990311;28;20040;-65
2023/07/15 07:41:57;;;;;;;4.50;1.55;;;24.90;83.80;;;;;;4990674;28;20438;-65
2023/07/15 07:44:23;;;;;;;3.15;1.75;;;24.70;87.10;;;;;;4990025;28;20031;-65
2023/07/15 07:46:49;;;;;;;3.58;1.50;;;24.60;89.60;;;;;;4989510;28;20023;-66
2023/07/15 07:49:14;;;;;;;2.72;1.80;;;24.30;93.20;;;;;;4986121;28;20029;-64
2023/07/15 07:51:40;;;;;;;3.30;1.77;;;24.10;93.60;;;;;;4983645;28;20069;-65
2023/07/15 07:54:06;;;;;;;5.55;1.85;;;23.90;98.30;;;;;;4986438;28;20038;-65
2023/07/15 07:56:31;;;;;;;4.57;2.17;;;23.60;99.30;;;;;;4978642;28;20027;-63
2023/07/15 07:58:59;;;;;;;2.97;1.73;;;23.50;99.90;;;;;;4985168;28;20121;-65
2023/07/15 08:01:25;;;;;;;2.83;2.10;;;23.20;99.90;;;;;;4974513;28;20113;-65
2023/07/15 08:03:53;;;;;;;7.40;2.20;;;23.10;99.90;;;;;;4988767;28;20443;-64
2023/07/15 08:06:20;;;;;;;2.50;1.88;;;22.90;99.90;;;;;;4983895;28;20085;-63
2023/07/15 08:08:46;;;;;;;4.72;2.53;;;22.70;99.90;;;;;;4988190;28;20026;-64
2023/07/15 08:11:11;;;;;;;4.90;2.30;;;22.50;99.90;;;;;;4991245;28;20041;-66
2023/07/15 08:13:37;;;;;;;3.40;2.13;;;22.40;99.90;;;;;;4984379;28;20092;-65
2023/07/15 08:16:02;;;;;;;3.83;2.35;;;22.20;99.90;;;;;;4984049;28;20053;-62
2023/07/15 08:18:28;;;;;;;4.78;2.08;;;22.00;99.90;;;;;;4990327;28;20040;-65
2023/07/15 08:20:54;;;;;;;7.25;2.58;;;21.90;99.90;;;;;;4990147;28;20113;-65
2023/07/15 08:23:20;;;;;;;3.70;2.10;;;21.70;99.90;;;;;;4992814;28;20030;-64
2023/07/15 08:25:46;;;;;;;4.13;2.20;;;21.60;99.90;;;;;;4990123;28;20037;-64
2023/07/15 08:28:12;;;;;;;4.53;2.60;;;21.50;99.90;;;;;;4989228;28;20030;-63
2023/07/15 08:30:37;;;;;;;5.55;2.55;;;21.40;99.90;;;;;;4993504;28;20084;-65
2023/07/15 08:33:04;;;;;;;6.07;2.45;;;21.40;99.90;;;;;;4991225;28;20030;-64
2023/07/15 08:35:31;;;;;;;5.75;2.67;;;21.30;99.90;;;;;;4990296;28;20037;-65
2023/07/15 08:37:56;;;;;;;4.30;2.70;;;21.40;99.90;;;;;;4992972;28;20026;-66
2023/07/15 08:40:25;;;;;;;6.03;2.83;;;21.40;99.90;;;;;;4991826;28;20026;-65
2023/07/15 08:42:50;;;;;;;4.68;2.40;;;21.40;99.90;;;;;;4992294;28;20404;-62
2023/07/15 08:45:17;;;;;;;6.40;2.22;;;21.30;99.90;;;;;;4974560;28;20034;-65
2023/07/15 08:47:44;;;;;;;3.67;2.22;;;21.20;99.90;;;;;;4992672;28;20069;-65
2023/07/15 08:50:17;;;;;;;3.58;2.20;;;21.20;99.90;;;;;;4991263;28;20030;-65
2023/07/15 08:52:44;;;;;;;4.90;2.30;;;21.10;99.90;;;;;;4989054;28;20041;-66
2023/07/15 08:55:10;;;;;;;9.40;3.65;;;21.00;99.90;;;;;;4989177;28;20042;-65
2023/07/15 08:57:36;;;;;;;4.55;2.40;;;21.00;99.90;;;;;;4987859;28;20026;-64
2023/07/15 09:00:10;;;;;;;4.95;2.67;;;21.00;99.90;;;;;;4991107;28;20053;-65
2023/07/15 09:02:37;;;;;;;12.18;3.17;;;20.80;99.90;;;;;;4985460;28;20018;-65
2023/07/15 09:05:06;;;;;;;5.07;2.75;;;20.70;99.90;;;;;;4969122;28;20571;-65
2023/07/15 09:07:31;;;;;;;5.85;2.47;;;20.70;99.90;;;;;;4987308;28;20552;-64
2023/07/15 09:10:04;;;;;;;3.90;2.45;;;20.70;99.90;;;;;;4986672;28;20502;-63
2023/07/15 09:12:30;;;;;;;3.97;2.40;;;20.60;99.90;;;;;;4985821;28;20018;-63
2023/07/15 09:14:55;;;;;;;7.55;2.70;;;20.40;99.90;;;;;;4993030;28;20445;-64
2023/07/15 09:17:21;;;;;;;5.72;2.95;;;20.30;99.90;;;;;;4994157;28;20090;-63
2023/07/15 09:19:48;;;;;;;6.65;2.88;;;20.40;99.90;;;;;;4993819;28;20026;-64
2023/07/15 09:22:13;;;;;;;7.93;2.60;;;20.40;99.90;;;;;;4992355;28;20034;-64
2023/07/15 09:24:39;;;;;;;6.88;3.15;;;20.30;99.90;;;;;;4989285;28;20437;-63
2023/07/15 09:27:06;;;;;;;5.07;2.65;;;20.20;99.90;;;;;;4986098;28;20085;-64
2023/07/15 09:29:32;;;;;;;9.85;3.22;;;20.20;99.90;;;;;;4992301;28;20022;-65
2023/07/15 09:31:58;;;;;;;5.22;3.08;;;20.20;99.90;;;;;;4993391;28;20097;-64
2023/07/15 09:34:25;;;;;;;4.47;2.97;;;20.20;99.90;;;;;;4993329;28;20030;-64
2023/07/15 09:36:52;;;;;;;4.07;2.42;;;20.00;99.90;;;;;;4989846;28;20034;-63
2023/07/15 09:39:22;;;;;;;4.57;3.00;;;20.00;99.90;;;;;;4989520;28;20037;-64
2023/07/15 09:42:04;;;;;;;5.22;2.90;;;20.10;99.90;;;;;;4991424;28;20014;-65
2023/07/15 09:44:38;;;;;;;4.43;2.15;;;19.90;99.90;;;;;;4983776;28;20110;-64
2023/07/15 09:47:05;;;;;;;3.55;2.00;;;20.00;99.90;;;;;;4991634;28;20030;-64
2023/07/15 09:49:31;;;;;;;7.85;2.75;;;20.00;99.90;;;;;;4973699;28;20042;-64
2023/07/15 09:51:58;;;;;;;2.67;2.17;;;20.00;99.90;;;;;;4988035;28;20066;-63
2023/07/15 09:54:25;;;;;;;6.55;2.45;;;20.10;99.90;;;;;;4987154;28;20391;-64
2023/07/15 09:57:00;;;;;;;5.95;2.22;;;20.20;99.90;;;;;;4988740;28;20101;-64
2023/07/15 09:59:29;;;;;;;4.95;2.45;;;20.40;99.90;;;;;;4985102;28;20030;-65
2023/07/15 10:02:16;;;;;;;4.57;2.50;;;20.50;99.90;;;;;;4984718;28;20069;-64
2023/07/15 10:04:45;;;;;;;5.28;2.28;;;20.60;99.90;;;;;;4984493;28;20018;-64
2023/07/15 10:07:12;;;;;;;3.72;2.08;;;20.70;99.90;;;;;;4987053;28;20062;-64
2023/07/15 10:09:38;;;;;;;5.47;2.78;;;20.90;99.90;;;;;;4982877;28;20519;-65
2023/07/15 10:12:05;;;;;;;4.60;2.20;;;21.00;99.90;;;;;;4990348;28;20524;-63
2023/07/15 10:14:31;;;;;;;2.72;2.22;;;21.00;99.90;;;;;;4982411;28;20034;-65
2023/07/15 10:17:17;;;;;;;4.18;2.50;;;21.10;99.90;;;;;;4985215;28;20029;-64
2023/07/15 10:19:48;;;;;;;3.53;2.05;;;21.00;99.90;;;;;;4983810;28;20034;-63
2023/07/15 10:22:15;;;;;;;6.63;2.75;;;21.00;99.90;;;;;;4983032;28;20117;-65
2023/07/15 10:24:55;;;;;;;5.90;2.38;;;21.10;99.90;;;;;;4992214;28;20019;-65
2023/07/15 10:27:20;;;;;;;3.45;2.25;;;21.10;99.90;;;;;;4983477;28;20027;-62
2023/07/15 10:29:46;;;;;;;7.25;2.78;;;21.10;99.90;;;;;;4984368;28;20030;-65
2023/07/15 10:32:13;;;;;;;5.72;2.35;;;21.10;99.90;;;;;;4979476;28;20026;-65
2023/07/15 10:34:50;;;;;;;5.13;2.15;;;21.10;99.90;;;;;;4983756;28;20034;-65
2023/07/15 10:37:17;;;;;;;3.97;2.03;;;21.10;99.90;;;;;;4990705;28;20034;-64
2023/07/15 10:39:43;;;;;;;3.88;2.88;;;21.10;99.90;;;;;;4991318;28;20031;-65
2023/07/15 10:42:14;;;;;;;5.25;2.20;;;21.10;99.90;;;;;;4985471;28;20104;-64
2023/07/15 10:44:53;;;;;;;3.83;1.73;;;21.20;99.90;;;;;;4984028;28;20153;-67
2023/07/15 10:47:20;;;;;;;4.90;2.50;;;21.30;99.90;;;;;;4983410;28;20035;-65
2023/07/15 10:49:48;;;;;;;3.72;2.30;;;21.50;99.90;;;;;;4989085;28;20030;-65
2023/07/15 10:52:21;;;;;;;2.60;1.88;;;21.60;99.90;;;;;;4986238;28;20038;-65
2023/07/15 10:54:46;;;;;;;8.32;3.88;;;21.70;99.90;;;;;;4955462;28;20480;-65
2023/07/15 10:57:15;;;;;;;4.47;2.38;;;21.90;99.90;;;;;;4972380;28;20046;-66
2023/07/15 10:59:45;;;;;;;4.30;2.72;;;22.40;99.90;;;;;;4984509;28;20030;-66
2023/07/15 11:02:11;;;;;;;5.93;2.50;;;22.60;99.90;;;;;;4988094;28;20073;-65
2023/07/15 11:04:39;;;;;;;3.85;2.42;;;22.80;99.90;;;;;;4986146;28;20043;-65
2023/07/15 11:07:07;;;;;;;4.63;2.13;;;23.00;99.90;;;;;;4970873;28;20030;-66
2023/07/15 11:09:37;;;;;;;5.57;2.55;;;23.10;99.90;;;;;;4989428;28;20037;-65
2023/07/15 11:12:07;;;;;;;3.65;2.75;;;22.80;99.90;;;;;;4990139;28;20058;-65
2023/07/15 11:14:32;;;;;;;2.55;2.00;;;22.80;99.90;;;;;;4990110;28;20093;-66
2023/07/15 11:17:00;;;;;;;4.10;2.60;;;22.70;99.90;;;;;;4985048;28;20026;-63
2023/07/15 11:19:27;;;;;;;3.83;2.60;;;22.60;99.90;;;;;;4990603;28;20521;-65
2023/07/15 11:21:55;;;;;;;3.75;2.47;;;22.50;99.90;;;;;;4991247;28;20105;-64
2023/07/15 11:24:25;;;;;;;4.88;2.80;;;22.50;99.90;;;;;;4989758;28;20027;-65
2023/07/15 11:26:51;;;;;;;3.30;2.42;;;22.50;99.90;;;;;;4991826;28;20026;-64
2023/07/15 11:29:18;;;;;;;4.53;3.15;;;22.80;99.90;;;;;;4988917;28;20031;-63
2023/07/15 11:31:46;;;;;;;7.65;2.70;;;23.00;99.90;;;;;;4987202;28;20022;-66
2023/07/15 11:34:15;;;;;;;4.80;2.83;;;23.40;99.90;;;;;;4988145;28;20044;-65
2023/07/15 11:36:41;;;;;;;3.63;2.33;;;24.00;99.90;;;;;;4993692;28;20030;-64
2023/07/15 11:39:07;;;;;;;4.03;2.30;;;24.40;99.90;;;;;;4992969;28;20547;-65
2023/07/15 11:41:34;;;;;;;3.83;2.28;;;24.70;99.90;;;;;;4986917;28;20031;-66
2023/07/15 11:44:00;;;;;;;4.82;2.40;;;24.70;99.90;;;;;;4990566;28;20102;-64
2023/07/15 11:46:27;;;;;;;4.40;2.33;;;24.80;99.90;;;;;;4990550;28;20102;-65
2023/07/15 11:48:55;;;;;;;4.45;2.35;;;24.80;99.90;;;;;;4981738;28;20026;-65
2023/07/15 11:51:21;;;;;;;6.10;3.15;;;24.40;99.90;;;;;;4973165;28;20425;-65
2023/07/15 11:53:47;;;;;;;7.18;3.10;;;24.20;99.90;;;;;;4995587;28;20069;-65
2023/07/15 11:56:34;;;;;;;5.00;2.83;;;23.80;99.90;;;;;;4994492;28;20065;-65
2023/07/15 11:59:00;;;;;;;3.80;2.42;;;23.60;99.90;;;;;;4995537;28;20018;-64
2023/07/15 12:01:26;;;;;;;4.78;2.90;;;23.50;99.90;;;;;;4995493;28;20031;-65
2023/07/15 12:03:52;;;;;;;3.97;2.38;;;23.80;99.90;;;;;;4989304;28;20053;-65
2023/07/15 12:06:20;;;;;;;2.78;1.92;;;23.90;99.90;;;;;;4990265;28;20396;-65
2023/07/15 12:09:10;;;;;;;3.42;2.03;;;24.40;99.90;;;;;;4990853;28;20026;-65
2023/07/15 12:11:37;;;;;;;3.55;2.30;;;24.90;99.90;;;;;;4985701;28;20026;-65
2023/07/15 12:14:05;;;;;;;3.03;2.00;;;25.10;99.90;;;;;;4991072;28;20069;-65
2023/07/15 12:16:32;;;;;;;4.15;2.75;;;25.30;99.90;;;;;;4994185;28;20031;-65
2023/07/15 12:18:58;;;;;;;6.22;2.58;;;25.50;99.90;;;;;;4987960;28;20018;-65
2023/07/15 12:21:24;;;;;;;6.05;2.42;;;25.90;99.90;;;;;;4992016;28;20041;-63
2023/07/15 12:23:52;;;;;;;2.67;1.95;;;26.00;99.90;;;;;;4990810;28;20031;-64
2023/07/15 12:26:19;;;;;;;5.10;2.28;;;26.20;99.90;;;;;;4990749;28;20033;-65
2023/07/15 12:28:45;;;;;;;2.42;1.73;;;25.80;99.90;;;;;;4974755;28;20025;-64
2023/07/15 12:31:11;;;;;;;3.85;2.00;;;25.70;99.90;;;;;;4989132;28;20037;-62
2023/07/15 12:33:37;;;;;;;2.92;2.00;;;25.70;99.90;;;;;;4988993;28;20515;-64
2023/07/15 12:36:03;;;;;;;3.20;1.80;;;25.50;99.90;;;;;;4991710;28;20041;-64
2023/07/15 12:38:29;;;;;;;2.55;2.28;;;25.40;99.90;;;;;;4993320;28;20104;-64
2023/07/15 12:40:55;;;;;;;5.25;2.03;;;25.70;99.90;;;;;;4970535;28;20058;-65
2023/07/15 12:43:23;;;;;;;6.43;1.95;;;26.00;99.90;;;;;;4985257;28;20113;-65